sensor_id;sensor_type;location;lat;lon;timestamp;temperature;humidity
40289;DHT22;28991;52.028;5.526;2023-05-29T00:02:21;21.90;47.70
40289;DHT22;28991;52.028;5.526;2023-05-29T00:04:47;22.10;47.80
40289;DHT22;28991;52.028;5.526;2023-05-29T00:07:12;21.70;47.60
40289;DHT22;28991;52.028;5.526;2023-05-29T00:09:38;21.90;47.70
40289;DHT22;28991;52.028;5.526;2023-05-29T00:12:04;21.90;47.70
40289;DHT22;28991;52.028;5.526;2023-05-29T00:14:31;21.90;47.70
40289;DHT22;28991;52.028;5.526;2023-05-29T00:16:56;21.90;47.80
40289;DHT22;28991;52.028;5.526;2023-05-29T00:19:22;21.90;47.80
40289;DHT22;28991;52.028;5.526;2023-05-29T00:21:49;21.90;47.80
40289;DHT22;28991;52.028;5.526;2023-05-29T00:24:15;21.90;47.80
40289;DHT22;28991;52.028;5.526;2023-05-29T00:26:41;21.90;47.80
40289;DHT22;28991;52.028;5.526;2023-05-29T00:29:06;21.90;47.90
40289;DHT22;28991;52.028;5.526;2023-05-29T00:31:32;21.90;47.80
40289;DHT22;28991;52.028;5.526;2023-05-29T00:33:57;21.90;47.90
40289;DHT22;28991;52.028;5.526;2023-05-29T00:36:23;21.90;47.90
40289;DHT22;28991;52.028;5.526;2023-05-29T00:38:49;21.90;47.90
40289;DHT22;28991;52.028;5.526;2023-05-29T00:41:15;21.90;47.90
40289;DHT22;28991;52.028;5.526;2023-05-29T00:43:41;21.90;47.90
40289;DHT22;28991;52.028;5.526;2023-05-29T00:46:09;21.90;47.90
40289;DHT22;28991;52.028;5.526;2023-05-29T00:48:35;22.60;48.30
40289;DHT22;28991;52.028;5.526;2023-05-29T00:51:01;21.80;47.90
40289;DHT22;28991;52.028;5.526;2023-05-29T00:53:29;21.80;47.90
40289;DHT22;28991;52.028;5.526;2023-05-29T00:55:55;21.80;48.00
40289;DHT22;28991;52.028;5.526;2023-05-29T00:58:21;21.80;47.90
40289;DHT22;28991;52.028;5.526;2023-05-29T01:00:47;22.30;48.20
40289;DHT22;28991;52.028;5.526;2023-05-29T01:03:13;21.80;48.00
40289;DHT22;28991;52.028;5.526;2023-05-29T01:05:42;21.90;48.00
40289;DHT22;28991;52.028;5.526;2023-05-29T01:08:07;21.80;48.00
40289;DHT22;28991;52.028;5.526;2023-05-29T01:10:34;21.90;48.10
40289;DHT22;28991;52.028;5.526;2023-05-29T01:26:41;21.80;48.20
40289;DHT22;28991;52.028;5.526;2023-05-29T01:29:08;21.80;48.20
40289;DHT22;28991;52.028;5.526;2023-05-29T01:31:37;21.80;48.20
40289;DHT22;28991;52.028;5.526;2023-05-29T01:34:04;21.80;48.20
40289;DHT22;28991;52.028;5.526;2023-05-29T01:36:30;21.80;48.20
40289;DHT22;28991;52.028;5.526;2023-05-29T01:38:58;21.80;48.20
40289;DHT22;28991;52.028;5.526;2023-05-29T01:41:25;21.80;48.20
40289;DHT22;28991;52.028;5.526;2023-05-29T01:43:51;21.80;48.30
40289;DHT22;28991;52.028;5.526;2023-05-29T01:46:19;21.80;48.30
40289;DHT22;28991;52.028;5.526;2023-05-29T01:48:45;21.80;48.30
40289;DHT22;28991;52.028;5.526;2023-05-29T01:51:12;21.80;48.30
40289;DHT22;28991;52.028;5.526;2023-05-29T01:53:41;21.80;48.30
40289;DHT22;28991;52.028;5.526;2023-05-29T01:56:08;21.90;48.40
40289;DHT22;28991;52.028;5.526;2023-05-29T01:58:34;21.80;48.30
40289;DHT22;28991;52.028;5.526;2023-05-29T02:01:02;21.70;48.30
40289;DHT22;28991;52.028;5.526;2023-05-29T02:03:32;21.70;48.30
40289;DHT22;28991;52.028;5.526;2023-05-29T02:05:58;21.70;48.30
40289;DHT22;28991;52.028;5.526;2023-05-29T02:08:24;21.80;48.40
40289;DHT22;28991;52.028;5.526;2023-05-29T02:10:50;21.70;48.30
40289;DHT22;28991;52.028;5.526;2023-05-29T02:13:16;21.60;48.30
40289;DHT22;28991;52.028;5.526;2023-05-29T02:15:42;21.80;48.40
40289;DHT22;28991;52.028;5.526;2023-05-29T02:18:13;21.70;48.30
40289;DHT22;28991;52.028;5.526;2023-05-29T02:20:39;21.70;48.40
40289;DHT22;28991;52.028;5.526;2023-05-29T02:23:05;21.70;48.30
40289;DHT22;28991;52.028;5.526;2023-05-29T02:25:31;21.70;48.40
40289;DHT22;28991;52.028;5.526;2023-05-29T02:27:56;21.70;48.40
40289;DHT22;28991;52.028;5.526;2023-05-29T02:30:22;21.70;48.40
40289;DHT22;28991;52.028;5.526;2023-05-29T02:32:48;21.90;48.50
40289;DHT22;28991;52.028;5.526;2023-05-29T02:35:13;21.70;48.50
40289;DHT22;28991;52.028;5.526;2023-05-29T02:37:41;21.70;48.40
40289;DHT22;28991;52.028;5.526;2023-05-29T02:40:07;21.70;48.50
40289;DHT22;28991;52.028;5.526;2023-05-29T02:42:34;21.70;48.50
40289;DHT22;28991;52.028;5.526;2023-05-29T02:45:00;21.70;48.50
40289;DHT22;28991;52.028;5.526;2023-05-29T02:47:25;21.70;48.50
40289;DHT22;28991;52.028;5.526;2023-05-29T02:49:51;21.70;48.50
40289;DHT22;28991;52.028;5.526;2023-05-29T02:52:17;21.70;48.50
40289;DHT22;28991;52.028;5.526;2023-05-29T02:54:42;21.70;48.50
40289;DHT22;28991;52.028;5.526;2023-05-29T02:57:08;22.00;48.70
40289;DHT22;28991;52.028;5.526;2023-05-29T02:59:33;21.60;48.50
40289;DHT22;28991;52.028;5.526;2023-05-29T03:01:59;21.60;48.50
40289;DHT22;28991;52.028;5.526;2023-05-29T03:04:24;21.70;48.50
40289;DHT22;28991;52.028;5.526;2023-05-29T03:06:50;21.70;48.60
40289;DHT22;28991;52.028;5.526;2023-05-29T03:09:18;22.00;48.70
40289;DHT22;28991;52.028;5.526;2023-05-29T03:11:43;21.70;48.60
40289;DHT22;28991;52.028;5.526;2023-05-29T03:14:10;21.70;48.60
40289;DHT22;28991;52.028;5.526;2023-05-29T03:16:35;21.60;48.60
40289;DHT22;28991;52.028;5.526;2023-05-29T03:19:01;21.70;48.60
40289;DHT22;28991;52.028;5.526;2023-05-29T03:21:28;21.70;48.60
40289;DHT22;28991;52.028;5.526;2023-05-29T03:23:53;21.60;48.60
40289;DHT22;28991;52.028;5.526;2023-05-29T03:26:19;21.70;48.70
40289;DHT22;28991;52.028;5.526;2023-05-29T03:28:45;21.60;48.60
40289;DHT22;28991;52.028;5.526;2023-05-29T03:31:10;21.60;48.60
40289;DHT22;28991;52.028;5.526;2023-05-29T03:33:36;21.60;48.60
40289;DHT22;28991;52.028;5.526;2023-05-29T03:36:02;21.60;48.60
40289;DHT22;28991;52.028;5.526;2023-05-29T03:38:27;21.60;48.60
40289;DHT22;28991;52.028;5.526;2023-05-29T03:40:53;21.70;48.70
40289;DHT22;28991;52.028;5.526;2023-05-29T03:43:19;21.60;48.60
40289;DHT22;28991;52.028;5.526;2023-05-29T03:45:45;21.50;48.60
40289;DHT22;28991;52.028;5.526;2023-05-29T03:48:10;21.50;48.60
40289;DHT22;28991;52.028;5.526;2023-05-29T03:50:36;21.60;48.60
40289;DHT22;28991;52.028;5.526;2023-05-29T03:53:01;21.60;48.60
40289;DHT22;28991;52.028;5.526;2023-05-29T03:55:27;21.70;48.70
40289;DHT22;28991;52.028;5.526;2023-05-29T03:57:53;21.60;48.60
40289;DHT22;28991;52.028;5.526;2023-05-29T04:00:19;21.90;49.30
40289;DHT22;28991;52.028;5.526;2023-05-29T04:02:45;21.70;48.60
40289;DHT22;28991;52.028;5.526;2023-05-29T04:05:11;21.60;48.50
40289;DHT22;28991;52.028;5.526;2023-05-29T04:07:38;21.70;48.60
40289;DHT22;28991;52.028;5.526;2023-05-29T04:10:05;21.70;48.50
40289;DHT22;28991;52.028;5.526;2023-05-29T04:12:35;21.70;48.50
40289;DHT22;28991;52.028;5.526;2023-05-29T04:15:00;21.80;48.50
40289;DHT22;28991;52.028;5.526;2023-05-29T04:17:26;21.80;48.40
40289;DHT22;28991;52.028;5.526;2023-05-29T04:19:52;21.90;48.40
40289;DHT22;28991;52.028;5.526;2023-05-29T04:22:17;22.30;48.50
40289;DHT22;28991;52.028;5.526;2023-05-29T04:24:43;21.90;48.10
40289;DHT22;28991;52.028;5.526;2023-05-29T04:27:09;21.90;47.90
40289;DHT22;28991;52.028;5.526;2023-05-29T04:29:41;22.20;47.90
40289;DHT22;28991;52.028;5.526;2023-05-29T04:32:10;22.20;47.80
40289;DHT22;28991;52.028;5.526;2023-05-29T04:34:37;22.30;47.60
40289;DHT22;28991;52.028;5.526;2023-05-29T04:37:04;22.40;47.40
40289;DHT22;28991;52.028;5.526;2023-05-29T04:39:30;22.50;47.30
40289;DHT22;28991;52.028;5.526;2023-05-29T04:41:56;22.60;47.10
40289;DHT22;28991;52.028;5.526;2023-05-29T04:44:24;22.70;47.00
40289;DHT22;28991;52.028;5.526;2023-05-29T04:46:52;22.80;46.80
40289;DHT22;28991;52.028;5.526;2023-05-29T04:49:18;22.90;46.70
40289;DHT22;28991;52.028;5.526;2023-05-29T04:51:44;23.00;46.50
40289;DHT22;28991;52.028;5.526;2023-05-29T04:54:11;23.10;46.30
40289;DHT22;28991;52.028;5.526;2023-05-29T04:56:36;23.20;46.10
40289;DHT22;28991;52.028;5.526;2023-05-29T04:59:03;23.30;45.90
40289;DHT22;28991;52.028;5.526;2023-05-29T05:01:28;23.50;45.70
40289;DHT22;28991;52.028;5.526;2023-05-29T05:03:54;23.60;45.50
40289;DHT22;28991;52.028;5.526;2023-05-29T05:06:23;23.60;45.20
40289;DHT22;28991;52.028;5.526;2023-05-29T05:08:51;23.90;44.90
40289;DHT22;28991;52.028;5.526;2023-05-29T05:11:17;23.90;44.10
40289;DHT22;28991;52.028;5.526;2023-05-29T05:13:43;23.80;43.20
40289;DHT22;28991;52.028;5.526;2023-05-29T05:16:08;23.90;42.60
40289;DHT22;28991;52.028;5.526;2023-05-29T05:18:34;24.00;42.10
40289;DHT22;28991;52.028;5.526;2023-05-29T05:20:59;24.10;41.60
40289;DHT22;28991;52.028;5.526;2023-05-29T05:23:25;24.10;41.10
40289;DHT22;28991;52.028;5.526;2023-05-29T05:25:51;24.20;40.60
40289;DHT22;28991;52.028;5.526;2023-05-29T05:28:16;24.30;40.20
40289;DHT22;28991;52.028;5.526;2023-05-29T05:30:42;24.40;39.80
40289;DHT22;28991;52.028;5.526;2023-05-29T05:33:07;24.50;39.30
40289;DHT22;28991;52.028;5.526;2023-05-29T05:35:33;24.60;38.80
40289;DHT22;28991;52.028;5.526;2023-05-29T05:37:59;24.70;38.40
40289;DHT22;28991;52.028;5.526;2023-05-29T05:40:25;24.90;38.20
40289;DHT22;28991;52.028;5.526;2023-05-29T05:42:51;25.00;38.00
40289;DHT22;28991;52.028;5.526;2023-05-29T05:45:17;25.10;37.70
40289;DHT22;28991;52.028;5.526;2023-05-29T05:47:42;25.20;37.40
40289;DHT22;28991;52.028;5.526;2023-05-29T05:50:08;25.30;37.10
40289;DHT22;28991;52.028;5.526;2023-05-29T05:52:34;25.50;36.80
40289;DHT22;28991;52.028;5.526;2023-05-29T05:55:00;25.80;36.60
40289;DHT22;28991;52.028;5.526;2023-05-29T05:57:25;25.80;36.10
40289;DHT22;28991;52.028;5.526;2023-05-29T05:59:52;26.00;35.80
40289;DHT22;28991;52.028;5.526;2023-05-29T06:02:17;26.10;35.50
40289;DHT22;28991;52.028;5.526;2023-05-29T06:04:43;26.20;35.20
40289;DHT22;28991;52.028;5.526;2023-05-29T06:07:09;26.30;35.00
40289;DHT22;28991;52.028;5.526;2023-05-29T06:09:34;26.50;34.90
40289;DHT22;28991;52.028;5.526;2023-05-29T06:12:00;26.50;34.70
40289;DHT22;28991;52.028;5.526;2023-05-29T06:14:26;26.60;34.60
40289;DHT22;28991;52.028;5.526;2023-05-29T06:16:51;26.70;34.70
40289;DHT22;28991;52.028;5.526;2023-05-29T06:19:17;26.70;34.40
40289;DHT22;28991;52.028;5.526;2023-05-29T06:21:43;26.80;34.50
40289;DHT22;28991;52.028;5.526;2023-05-29T06:24:08;26.90;34.50
40289;DHT22;28991;52.028;5.526;2023-05-29T06:26:36;26.80;34.50
40289;DHT22;28991;52.028;5.526;2023-05-29T06:29:01;26.90;34.50
40289;DHT22;28991;52.028;5.526;2023-05-29T06:31:27;26.90;34.10
40289;DHT22;28991;52.028;5.526;2023-05-29T06:33:54;26.90;34.20
40289;DHT22;28991;52.028;5.526;2023-05-29T06:36:20;26.90;34.10
40289;DHT22;28991;52.028;5.526;2023-05-29T06:38:50;26.80;33.80
40289;DHT22;28991;52.028;5.526;2023-05-29T06:41:16;26.70;33.60
40289;DHT22;28991;52.028;5.526;2023-05-29T06:43:42;26.60;34.40
40289;DHT22;28991;52.028;5.526;2023-05-29T06:46:07;26.60;33.80
40289;DHT22;28991;52.028;5.526;2023-05-29T06:48:33;26.50;33.90
40289;DHT22;28991;52.028;5.526;2023-05-29T06:51:00;26.40;33.70
40289;DHT22;28991;52.028;5.526;2023-05-29T06:53:25;26.30;34.00
40289;DHT22;28991;52.028;5.526;2023-05-29T06:55:52;26.20;34.00
40289;DHT22;28991;52.028;5.526;2023-05-29T06:58:18;26.10;34.00
40289;DHT22;28991;52.028;5.526;2023-05-29T07:00:43;26.00;34.10
40289;DHT22;28991;52.028;5.526;2023-05-29T07:03:09;25.90;34.30
40289;DHT22;28991;52.028;5.526;2023-05-29T07:05:34;25.80;34.30
40289;DHT22;28991;52.028;5.526;2023-05-29T07:08:00;26.10;34.10
40289;DHT22;28991;52.028;5.526;2023-05-29T07:10:25;25.90;34.10
40289;DHT22;28991;52.028;5.526;2023-05-29T07:12:51;25.80;34.00
40289;DHT22;28991;52.028;5.526;2023-05-29T07:15:17;25.80;34.10
40289;DHT22;28991;52.028;5.526;2023-05-29T07:17:43;25.80;34.30
40289;DHT22;28991;52.028;5.526;2023-05-29T07:20:09;25.70;34.40
40289;DHT22;28991;52.028;5.526;2023-05-29T07:22:34;25.70;34.00
40289;DHT22;28991;52.028;5.526;2023-05-29T07:25:01;25.60;34.10
40289;DHT22;28991;52.028;5.526;2023-05-29T07:27:27;25.70;34.00
40289;DHT22;28991;52.028;5.526;2023-05-29T07:29:52;25.70;34.00
40289;DHT22;28991;52.028;5.526;2023-05-29T07:32:18;25.60;34.00
40289;DHT22;28991;52.028;5.526;2023-05-29T07:34:43;25.60;33.90
40289;DHT22;28991;52.028;5.526;2023-05-29T07:37:09;25.60;34.10
40289;DHT22;28991;52.028;5.526;2023-05-29T07:39:35;25.70;34.00
40289;DHT22;28991;52.028;5.526;2023-05-29T07:42:01;25.70;33.90
40289;DHT22;28991;52.028;5.526;2023-05-29T07:44:27;25.60;33.90
40289;DHT22;28991;52.028;5.526;2023-05-29T07:46:53;25.60;33.90
40289;DHT22;28991;52.028;5.526;2023-05-29T07:49:20;25.60;33.90
40289;DHT22;28991;52.028;5.526;2023-05-29T07:51:45;25.50;34.00
40289;DHT22;28991;52.028;5.526;2023-05-29T07:54:11;25.50;34.00
40289;DHT22;28991;52.028;5.526;2023-05-29T07:56:37;25.50;34.00
40289;DHT22;28991;52.028;5.526;2023-05-29T07:59:04;25.50;34.00
40289;DHT22;28991;52.028;5.526;2023-05-29T08:01:29;25.40;34.00
40289;DHT22;28991;52.028;5.526;2023-05-29T08:03:55;25.40;34.10
40289;DHT22;28991;52.028;5.526;2023-05-29T08:06:21;25.40;34.00
40289;DHT22;28991;52.028;5.526;2023-05-29T08:08:46;25.20;33.90
40289;DHT22;28991;52.028;5.526;2023-05-29T08:11:12;25.30;34.00
40289;DHT22;28991;52.028;5.526;2023-05-29T08:13:38;25.20;34.00
40289;DHT22;28991;52.028;5.526;2023-05-29T08:16:04;25.30;34.10
40289;DHT22;28991;52.028;5.526;2023-05-29T08:18:31;25.10;34.00
40289;DHT22;28991;52.028;5.526;2023-05-29T08:20:57;25.10;34.20
40289;DHT22;28991;52.028;5.526;2023-05-29T08:23:23;25.00;34.10
40289;DHT22;28991;52.028;5.526;2023-05-29T08:25:49;25.00;34.10
40289;DHT22;28991;52.028;5.526;2023-05-29T08:28:15;24.90;34.20
40289;DHT22;28991;52.028;5.526;2023-05-29T08:30:40;24.90;34.20
40289;DHT22;28991;52.028;5.526;2023-05-29T08:33:06;24.80;34.30
40289;DHT22;28991;52.028;5.526;2023-05-29T08:35:32;24.80;34.40
40289;DHT22;28991;52.028;5.526;2023-05-29T08:37:58;24.70;34.30
40289;DHT22;28991;52.028;5.526;2023-05-29T08:40:24;24.70;34.30
40289;DHT22;28991;52.028;5.526;2023-05-29T08:43:13;24.60;34.30
40289;DHT22;28991;52.028;5.526;2023-05-29T08:45:43;24.60;34.30
40289;DHT22;28991;52.028;5.526;2023-05-29T08:48:10;24.50;34.40
40289;DHT22;28991;52.028;5.526;2023-05-29T08:50:44;24.40;34.50
40289;DHT22;28991;52.028;5.526;2023-05-29T08:53:13;24.40;34.70
40289;DHT22;28991;52.028;5.526;2023-05-29T08:55:39;24.30;34.70
40289;DHT22;28991;52.028;5.526;2023-05-29T08:58:05;24.20;34.80
40289;DHT22;28991;52.028;5.526;2023-05-29T09:00:32;24.20;34.90
40289;DHT22;28991;52.028;5.526;2023-05-29T09:02:58;24.10;35.00
40289;DHT22;28991;52.028;5.526;2023-05-29T09:05:25;24.10;35.10
40289;DHT22;28991;52.028;5.526;2023-05-29T09:07:53;23.90;35.20
40289;DHT22;28991;52.028;5.526;2023-05-29T09:10:19;23.90;35.30
40289;DHT22;28991;52.028;5.526;2023-05-29T09:12:46;23.90;35.30
40289;DHT22;28991;52.028;5.526;2023-05-29T09:15:22;23.80;35.40
40289;DHT22;28991;52.028;5.526;2023-05-29T09:17:55;23.80;35.40
40289;DHT22;28991;52.028;5.526;2023-05-29T09:20:23;23.80;35.40
40289;DHT22;28991;52.028;5.526;2023-05-29T09:22:59;23.70;35.50
40289;DHT22;28991;52.028;5.526;2023-05-29T09:25:28;23.70;35.60
40289;DHT22;28991;52.028;5.526;2023-05-29T09:28:07;23.60;35.60
40289;DHT22;28991;52.028;5.526;2023-05-29T09:30:41;23.60;35.70
40289;DHT22;28991;52.028;5.526;2023-05-29T09:33:08;23.50;35.70
40289;DHT22;28991;52.028;5.526;2023-05-29T09:38:06;23.50;35.70
40289;DHT22;28991;52.028;5.526;2023-05-29T09:40:33;23.40;35.70
40289;DHT22;28991;52.028;5.526;2023-05-29T09:43:12;23.40;35.80
40289;DHT22;28991;52.028;5.526;2023-05-29T09:45:46;23.70;36.00
40289;DHT22;28991;52.028;5.526;2023-05-29T09:48:14;23.40;35.80
40289;DHT22;28991;52.028;5.526;2023-05-29T09:50:40;23.30;35.80
40289;DHT22;28991;52.028;5.526;2023-05-29T09:53:25;23.30;35.80
40289;DHT22;28991;52.028;5.526;2023-05-29T09:55:52;23.30;35.80
40289;DHT22;28991;52.028;5.526;2023-05-29T09:58:18;23.30;35.90
40289;DHT22;28991;52.028;5.526;2023-05-29T10:00:45;23.20;35.80
40289;DHT22;28991;52.028;5.526;2023-05-29T10:03:14;23.20;35.80
40289;DHT22;28991;52.028;5.526;2023-05-29T10:05:40;23.10;35.80
40289;DHT22;28991;52.028;5.526;2023-05-29T10:08:14;23.20;35.90
40289;DHT22;28991;52.028;5.526;2023-05-29T10:11:00;23.20;35.90
40289;DHT22;28991;52.028;5.526;2023-05-29T10:13:36;23.20;35.90
40289;DHT22;28991;52.028;5.526;2023-05-29T10:16:03;23.20;35.90
40289;DHT22;28991;52.028;5.526;2023-05-29T10:18:38;23.20;35.90
40289;DHT22;28991;52.028;5.526;2023-05-29T10:21:07;23.10;35.90
40289;DHT22;28991;52.028;5.526;2023-05-29T10:23:37;23.10;35.90
40289;DHT22;28991;52.028;5.526;2023-05-29T10:26:15;23.10;35.90
40289;DHT22;28991;52.028;5.526;2023-05-29T10:28:44;23.10;35.90
40289;DHT22;28991;52.028;5.526;2023-05-29T10:31:22;23.10;35.90
40289;DHT22;28991;52.028;5.526;2023-05-29T10:33:56;23.10;35.90
40289;DHT22;28991;52.028;5.526;2023-05-29T10:36:31;23.10;35.90
40289;DHT22;28991;52.028;5.526;2023-05-29T10:39:01;23.00;35.90
40289;DHT22;28991;52.028;5.526;2023-05-29T10:43:57;23.00;35.90
40289;DHT22;28991;52.028;5.526;2023-05-29T10:49:22;23.00;35.90
40289;DHT22;28991;52.028;5.526;2023-05-29T10:51:48;23.00;35.90
40289;DHT22;28991;52.028;5.526;2023-05-29T10:54:14;23.20;36.00
40289;DHT22;28991;52.028;5.526;2023-05-29T10:56:44;23.00;36.00
40289;DHT22;28991;52.028;5.526;2023-05-29T10:59:10;23.00;36.00
40289;DHT22;28991;52.028;5.526;2023-05-29T11:01:39;22.90;36.00
40289;DHT22;28991;52.028;5.526;2023-05-29T11:06:52;23.30;36.30
40289;DHT22;28991;52.028;5.526;2023-05-29T11:14:47;22.90;36.30
40289;DHT22;28991;52.028;5.526;2023-05-29T11:20:08;22.90;36.40
40289;DHT22;28991;52.028;5.526;2023-05-29T11:23:01;22.90;36.40
40289;DHT22;28991;52.028;5.526;2023-05-29T11:25:28;22.90;36.40
40289;DHT22;28991;52.028;5.526;2023-05-29T11:27:53;23.30;36.60
40289;DHT22;28991;52.028;5.526;2023-05-29T11:30:20;22.90;36.40
40289;DHT22;28991;52.028;5.526;2023-05-29T11:32:46;22.80;36.30
40289;DHT22;28991;52.028;5.526;2023-05-29T11:35:13;22.80;36.30
40289;DHT22;28991;52.028;5.526;2023-05-29T11:37:42;22.80;36.30
40289;DHT22;28991;52.028;5.526;2023-05-29T11:40:12;22.80;36.20
40289;DHT22;28991;52.028;5.526;2023-05-29T11:42:45;22.80;36.20
40289;DHT22;28991;52.028;5.526;2023-05-29T11:45:15;22.80;36.10
40289;DHT22;28991;52.028;5.526;2023-05-29T11:47:57;22.80;36.20
40289;DHT22;28991;52.028;5.526;2023-05-29T11:50:25;22.80;36.20
40289;DHT22;28991;52.028;5.526;2023-05-29T11:52:51;22.80;36.20
40289;DHT22;28991;52.028;5.526;2023-05-29T11:55:20;22.70;36.20
40289;DHT22;28991;52.028;5.526;2023-05-29T11:58:07;22.80;36.30
40289;DHT22;28991;52.028;5.526;2023-05-29T12:00:35;22.80;36.30
40289;DHT22;28991;52.028;5.526;2023-05-29T12:03:02;22.90;36.30
40289;DHT22;28991;52.028;5.526;2023-05-29T12:05:29;22.70;36.10
40289;DHT22;28991;52.028;5.526;2023-05-29T12:07:56;22.70;36.10
40289;DHT22;28991;52.028;5.526;2023-05-29T12:10:22;22.70;36.10
40289;DHT22;28991;52.028;5.526;2023-05-29T12:12:51;22.70;36.00
40289;DHT22;28991;52.028;5.526;2023-05-29T12:15:17;22.70;36.10
40289;DHT22;28991;52.028;5.526;2023-05-29T12:17:44;22.70;36.10
40289;DHT22;28991;52.028;5.526;2023-05-29T12:20:11;22.70;36.10
40289;DHT22;28991;52.028;5.526;2023-05-29T12:22:38;22.70;36.00
40289;DHT22;28991;52.028;5.526;2023-05-29T12:25:10;22.70;36.10
40289;DHT22;28991;52.028;5.526;2023-05-29T12:27:40;22.70;36.10
40289;DHT22;28991;52.028;5.526;2023-05-29T12:30:26;22.70;36.00
40289;DHT22;28991;52.028;5.526;2023-05-29T12:32:52;22.90;36.10
40289;DHT22;28991;52.028;5.526;2023-05-29T12:35:24;22.70;35.90
40289;DHT22;28991;52.028;5.526;2023-05-29T12:37:56;22.70;35.80
40289;DHT22;28991;52.028;5.526;2023-05-29T12:40:25;22.70;35.80
40289;DHT22;28991;52.028;5.526;2023-05-29T12:42:58;22.70;35.80
40289;DHT22;28991;52.028;5.526;2023-05-29T12:45:26;22.70;35.80
40289;DHT22;28991;52.028;5.526;2023-05-29T12:48:00;22.70;35.80
40289;DHT22;28991;52.028;5.526;2023-05-29T12:50:37;22.70;35.80
40289;DHT22;28991;52.028;5.526;2023-05-29T12:53:08;22.70;35.90
40289;DHT22;28991;52.028;5.526;2023-05-29T12:55:40;22.70;35.90
40289;DHT22;28991;52.028;5.526;2023-05-29T12:58:09;22.60;35.90
40289;DHT22;28991;52.028;5.526;2023-05-29T13:00:37;22.60;36.00
40289;DHT22;28991;52.028;5.526;2023-05-29T13:03:04;22.60;36.00
40289;DHT22;28991;52.028;5.526;2023-05-29T13:05:30;22.60;36.20
40289;DHT22;28991;52.028;5.526;2023-05-29T13:07:56;22.60;36.20
40289;DHT22;28991;52.028;5.526;2023-05-29T13:10:25;22.60;36.30
40289;DHT22;28991;52.028;5.526;2023-05-29T13:12:53;22.70;36.40
40289;DHT22;28991;52.028;5.526;2023-05-29T13:15:24;22.60;36.40
40289;DHT22;28991;52.028;5.526;2023-05-29T13:17:51;22.60;36.40
40289;DHT22;28991;52.028;5.526;2023-05-29T13:20:17;22.60;36.40
40289;DHT22;28991;52.028;5.526;2023-05-29T13:22:47;22.60;36.30
40289;DHT22;28991;52.028;5.526;2023-05-29T13:25:14;22.60;36.40
40289;DHT22;28991;52.028;5.526;2023-05-29T13:27:44;22.60;36.40
40289;DHT22;28991;52.028;5.526;2023-05-29T13:30:10;22.60;36.30
40289;DHT22;28991;52.028;5.526;2023-05-29T13:32:36;22.60;36.30
40289;DHT22;28991;52.028;5.526;2023-05-29T13:35:02;22.60;36.30
40289;DHT22;28991;52.028;5.526;2023-05-29T13:37:28;22.60;36.30
40289;DHT22;28991;52.028;5.526;2023-05-29T13:39:54;22.60;36.40
40289;DHT22;28991;52.028;5.526;2023-05-29T13:42:20;22.70;36.50
40289;DHT22;28991;52.028;5.526;2023-05-29T13:44:47;22.60;36.50
40289;DHT22;28991;52.028;5.526;2023-05-29T13:47:13;22.60;36.50
40289;DHT22;28991;52.028;5.526;2023-05-29T13:49:38;22.60;36.60
40289;DHT22;28991;52.028;5.526;2023-05-29T13:52:05;22.60;36.60
40289;DHT22;28991;52.028;5.526;2023-05-29T13:54:30;22.60;36.70
40289;DHT22;28991;52.028;5.526;2023-05-29T13:57:01;22.50;36.70
40289;DHT22;28991;52.028;5.526;2023-05-29T13:59:27;22.50;36.70
40289;DHT22;28991;52.028;5.526;2023-05-29T14:01:52;22.50;36.80
40289;DHT22;28991;52.028;5.526;2023-05-29T14:04:18;22.50;36.90
40289;DHT22;28991;52.028;5.526;2023-05-29T14:06:44;22.50;37.00
40289;DHT22;28991;52.028;5.526;2023-05-29T14:09:10;22.50;37.00
40289;DHT22;28991;52.028;5.526;2023-05-29T14:11:39;22.50;37.00
40289;DHT22;28991;52.028;5.526;2023-05-29T14:14:05;22.60;37.10
40289;DHT22;28991;52.028;5.526;2023-05-29T14:16:31;22.50;37.00
40289;DHT22;28991;52.028;5.526;2023-05-29T14:18:57;22.60;37.20
40289;DHT22;28991;52.028;5.526;2023-05-29T14:21:23;22.60;37.20
40289;DHT22;28991;52.028;5.526;2023-05-29T14:23:49;22.60;37.20
40289;DHT22;28991;52.028;5.526;2023-05-29T14:26:15;22.60;37.30
40289;DHT22;28991;52.028;5.526;2023-05-29T14:28:40;22.60;37.30
40289;DHT22;28991;52.028;5.526;2023-05-29T14:31:06;22.60;37.30
40289;DHT22;28991;52.028;5.526;2023-05-29T14:33:32;22.70;37.40
40289;DHT22;28991;52.028;5.526;2023-05-29T14:35:58;22.60;37.40
40289;DHT22;28991;52.028;5.526;2023-05-29T14:38:24;22.70;37.50
40289;DHT22;28991;52.028;5.526;2023-05-29T14:40:50;22.70;37.50
40289;DHT22;28991;52.028;5.526;2023-05-29T14:43:16;22.60;37.50
40289;DHT22;28991;52.028;5.526;2023-05-29T14:45:41;22.60;37.50
40289;DHT22;28991;52.028;5.526;2023-05-29T14:48:07;22.60;37.50
40289;DHT22;28991;52.028;5.526;2023-05-29T14:50:32;22.70;37.60
40289;DHT22;28991;52.028;5.526;2023-05-29T14:52:58;22.70;37.60
40289;DHT22;28991;52.028;5.526;2023-05-29T14:55:23;22.60;37.60
40289;DHT22;28991;52.028;5.526;2023-05-29T14:57:49;23.00;37.80
40289;DHT22;28991;52.028;5.526;2023-05-29T15:00:15;22.70;37.70
40289;DHT22;28991;52.028;5.526;2023-05-29T15:02:40;22.70;37.70
40289;DHT22;28991;52.028;5.526;2023-05-29T15:05:06;22.60;37.70
40289;DHT22;28991;52.028;5.526;2023-05-29T15:07:35;22.70;37.80
40289;DHT22;28991;52.028;5.526;2023-05-29T15:10:01;23.20;38.10
40289;DHT22;28991;52.028;5.526;2023-05-29T15:12:26;22.70;37.80
40289;DHT22;28991;52.028;5.526;2023-05-29T15:14:52;22.70;37.90
40289;DHT22;28991;52.028;5.526;2023-05-29T15:17:18;22.70;37.90
40289;DHT22;28991;52.028;5.526;2023-05-29T15:19:44;22.70;38.00
40289;DHT22;28991;52.028;5.526;2023-05-29T15:22:10;22.60;37.90
40289;DHT22;28991;52.028;5.526;2023-05-29T15:24:35;22.60;38.00
40289;DHT22;28991;52.028;5.526;2023-05-29T15:27:02;22.60;38.00
40289;DHT22;28991;52.028;5.526;2023-05-29T15:29:33;22.70;38.10
40289;DHT22;28991;52.028;5.526;2023-05-29T15:31:59;22.60;38.10
40289;DHT22;28991;52.028;5.526;2023-05-29T15:34:25;22.60;38.10
40289;DHT22;28991;52.028;5.526;2023-05-29T15:36:51;22.60;38.10
40289;DHT22;28991;52.028;5.526;2023-05-29T15:39:16;22.50;38.10
40289;DHT22;28991;52.028;5.526;2023-05-29T15:41:42;22.60;38.20
40289;DHT22;28991;52.028;5.526;2023-05-29T15:44:07;22.60;38.20
40289;DHT22;28991;52.028;5.526;2023-05-29T15:46:33;22.60;38.20
40289;DHT22;28991;52.028;5.526;2023-05-29T15:48:59;22.60;38.20
40289;DHT22;28991;52.028;5.526;2023-05-29T15:51:25;22.50;38.20
40289;DHT22;28991;52.028;5.526;2023-05-29T15:53:50;22.60;38.30
40289;DHT22;28991;52.028;5.526;2023-05-29T15:56:16;22.60;38.40
40289;DHT22;28991;52.028;5.526;2023-05-29T15:58:41;22.60;38.40
40289;DHT22;28991;52.028;5.526;2023-05-29T16:01:07;22.80;38.50
40289;DHT22;28991;52.028;5.526;2023-05-29T16:03:33;22.60;38.50